sensor_id;sensor_type;location;lat;lon;timestamp;P1;durP1;ratioP1;P2;durP2;ratioP2
43319;SDS011;28914;48.722;9.332;2023-12-29T00:02:48;2.50;;;1.57;;
43319;SDS011;28914;48.722;9.332;2023-12-29T00:08:07;2.10;;;1.90;;
43319;SDS011;28914;48.722;9.332;2023-12-29T00:13:26;2.30;;;1.60;;
43319;SDS011;28914;48.722;9.332;2023-12-29T00:18:46;1.90;;;1.50;;
43319;SDS011;28914;48.722;9.332;2023-12-29T00:24:05;2.50;;;1.93;;
43319;SDS011;28914;48.722;9.332;2023-12-29T00:29:24;1.80;;;1.47;;
43319;SDS011;28914;48.722;9.332;2023-12-29T00:34:43;2.20;;;1.47;;
43319;SDS011;28914;48.722;9.332;2023-12-29T00:40:02;1.83;;;1.60;;
43319;SDS011;28914;48.722;9.332;2023-12-29T00:45:22;1.90;;;1.43;;
43319;SDS011;28914;48.722;9.332;2023-12-29T00:50:41;2.10;;;1.80;;
43319;SDS011;28914;48.722;9.332;2023-12-29T00:56:00;2.40;;;1.50;;
43319;SDS011;28914;48.722;9.332;2023-12-29T01:01:20;1.63;;;1.47;;
43319;SDS011;28914;48.722;9.332;2023-12-29T01:06:39;2.13;;;1.40;;
43319;SDS011;28914;48.722;9.332;2023-12-29T01:11:58;2.00;;;1.80;;
43319;SDS011;28914;48.722;9.332;2023-12-29T01:17:17;1.70;;;1.60;;
43319;SDS011;28914;48.722;9.332;2023-12-29T01:22:36;1.87;;;1.67;;
43319;SDS011;28914;48.722;9.332;2023-12-29T01:27:56;1.80;;;1.40;;
43319;SDS011;28914;48.722;9.332;2023-12-29T01:33:15;2.83;;;2.00;;
43319;SDS011;28914;48.722;9.332;2023-12-29T01:38:34;2.50;;;1.50;;
43319;SDS011;28914;48.722;9.332;2023-12-29T01:49:19;2.77;;;2.20;;
43319;SDS011;28914;48.722;9.332;2023-12-29T01:54:39;2.00;;;1.73;;
43319;SDS011;28914;48.722;9.332;2023-12-29T02:00:01;2.70;;;2.33;;
43319;SDS011;28914;48.722;9.332;2023-12-29T02:05:21;2.20;;;1.90;;
43319;SDS011;28914;48.722;9.332;2023-12-29T02:10:43;2.77;;;2.07;;
43319;SDS011;28914;48.722;9.332;2023-12-29T02:16:12;2.53;;;2.33;;
43319;SDS011;28914;48.722;9.332;2023-12-29T02:21:46;2.40;;;2.17;;
43319;SDS011;28914;48.722;9.332;2023-12-29T02:27:07;2.13;;;1.93;;
43319;SDS011;28914;48.722;9.332;2023-12-29T02:32:36;2.40;;;2.07;;
43319;SDS011;28914;48.722;9.332;2023-12-29T02:38:01;2.30;;;2.00;;
43319;SDS011;28914;48.722;9.332;2023-12-29T02:43:20;2.23;;;2.03;;
43319;SDS011;28914;48.722;9.332;2023-12-29T02:48:39;3.00;;;2.20;;
43319;SDS011;28914;48.722;9.332;2023-12-29T02:53:58;2.87;;;2.60;;
43319;SDS011;28914;48.722;9.332;2023-12-29T02:59:18;2.67;;;2.30;;
43319;SDS011;28914;48.722;9.332;2023-12-29T03:04:37;2.57;;;2.37;;
43319;SDS011;28914;48.722;9.332;2023-12-29T03:09:56;2.80;;;2.10;;
43319;SDS011;28914;48.722;9.332;2023-12-29T03:15:16;2.67;;;2.27;;
43319;SDS011;28914;48.722;9.332;2023-12-29T03:20:35;2.60;;;2.40;;
43319;SDS011;28914;48.722;9.332;2023-12-29T03:25:54;2.50;;;2.30;;
43319;SDS011;28914;48.722;9.332;2023-12-29T03:31:13;3.00;;;2.70;;
43319;SDS011;28914;48.722;9.332;2023-12-29T03:36:32;2.30;;;2.10;;
43319;SDS011;28914;48.722;9.332;2023-12-29T03:41:52;3.10;;;2.47;;
43319;SDS011;28914;48.722;9.332;2023-12-29T03:47:11;2.70;;;2.50;;
43319;SDS011;28914;48.722;9.332;2023-12-29T03:52:30;2.20;;;1.90;;
43319;SDS011;28914;48.722;9.332;2023-12-29T03:57:49;2.10;;;1.90;;
43319;SDS011;28914;48.722;9.332;2023-12-29T04:03:08;2.23;;;2.03;;
43319;SDS011;28914;48.722;9.332;2023-12-29T04:08:28;2.20;;;2.00;;
43319;SDS011;28914;48.722;9.332;2023-12-29T04:13:47;3.00;;;2.17;;
43319;SDS011;28914;48.722;9.332;2023-12-29T04:19:06;2.67;;;2.47;;
43319;SDS011;28914;48.722;9.332;2023-12-29T04:24:25;2.83;;;2.30;;
43319;SDS011;28914;48.722;9.332;2023-12-29T04:29:45;2.90;;;2.20;;
43319;SDS011;28914;48.722;9.332;2023-12-29T04:35:04;2.50;;;2.20;;
43319;SDS011;28914;48.722;9.332;2023-12-29T04:40:23;3.73;;;2.40;;
43319;SDS011;28914;48.722;9.332;2023-12-29T04:45:43;3.30;;;2.07;;
43319;SDS011;28914;48.722;9.332;2023-12-29T04:51:02;2.47;;;2.20;;
43319;SDS011;28914;48.722;9.332;2023-12-29T04:56:21;3.90;;;2.07;;
43319;SDS011;28914;48.722;9.332;2023-12-29T05:01:41;2.07;;;1.83;;
43319;SDS011;28914;48.722;9.332;2023-12-29T05:07:00;3.07;;;1.63;;
43319;SDS011;28914;48.722;9.332;2023-12-29T05:12:19;2.60;;;1.60;;
43319;SDS011;28914;48.722;9.332;2023-12-29T05:17:38;2.30;;;2.10;;
43319;SDS011;28914;48.722;9.332;2023-12-29T05:22:57;2.87;;;2.33;;
43319;SDS011;28914;48.722;9.332;2023-12-29T05:28:17;2.40;;;2.20;;
43319;SDS011;28914;48.722;9.332;2023-12-29T05:33:36;1.97;;;1.70;;
43319;SDS011;28914;48.722;9.332;2023-12-29T05:38:55;2.23;;;1.83;;
43319;SDS011;28914;48.722;9.332;2023-12-29T05:44:14;2.70;;;2.50;;
43319;SDS011;28914;48.722;9.332;2023-12-29T05:49:34;2.43;;;1.73;;
43319;SDS011;28914;48.722;9.332;2023-12-29T05:54:57;1.60;;;1.50;;
43319;SDS011;28914;48.722;9.332;2023-12-29T06:00:16;2.27;;;1.90;;
43319;SDS011;28914;48.722;9.332;2023-12-29T06:05:35;2.13;;;1.93;;
43319;SDS011;28914;48.722;9.332;2023-12-29T06:10:55;2.00;;;1.53;;
43319;SDS011;28914;48.722;9.332;2023-12-29T06:16:20;2.50;;;2.30;;
43319;SDS011;28914;48.722;9.332;2023-12-29T06:21:40;2.20;;;1.83;;
43319;SDS011;28914;48.722;9.332;2023-12-29T06:27:01;2.17;;;1.93;;
43319;SDS011;28914;48.722;9.332;2023-12-29T06:32:21;3.07;;;2.10;;
43319;SDS011;28914;48.722;9.332;2023-12-29T06:37:40;4.30;;;3.90;;
43319;SDS011;28914;48.722;9.332;2023-12-29T06:42:59;4.13;;;3.77;;
43319;SDS011;28914;48.722;9.332;2023-12-29T06:48:19;2.80;;;2.60;;
43319;SDS011;28914;48.722;9.332;2023-12-29T06:53:38;3.07;;;2.77;;
43319;SDS011;28914;48.722;9.332;2023-12-29T06:58:57;2.33;;;2.13;;
43319;SDS011;28914;48.722;9.332;2023-12-29T07:04:16;4.40;;;3.23;;
43319;SDS011;28914;48.722;9.332;2023-12-29T07:09:37;5.13;;;4.10;;
43319;SDS011;28914;48.722;9.332;2023-12-29T07:14:58;3.47;;;3.00;;
43319;SDS011;28914;48.722;9.332;2023-12-29T07:20:17;5.90;;;3.30;;
43319;SDS011;28914;48.722;9.332;2023-12-29T07:25:37;2.63;;;2.30;;
43319;SDS011;28914;48.722;9.332;2023-12-29T07:30:56;7.10;;;6.43;;
43319;SDS011;28914;48.722;9.332;2023-12-29T07:36:15;5.50;;;5.00;;
43319;SDS011;28914;48.722;9.332;2023-12-29T07:41:38;5.23;;;4.73;;
43319;SDS011;28914;48.722;9.332;2023-12-29T07:46:59;8.93;;;6.60;;
43319;SDS011;28914;48.722;9.332;2023-12-29T07:52:18;9.63;;;6.40;;
43319;SDS011;28914;48.722;9.332;2023-12-29T07:57:37;10.57;;;7.53;;
43319;SDS011;28914;48.722;9.332;2023-12-29T08:02:57;6.57;;;4.93;;
43319;SDS011;28914;48.722;9.332;2023-12-29T08:08:17;4.47;;;4.07;;
43319;SDS011;28914;48.722;9.332;2023-12-29T08:13:36;5.13;;;4.63;;
43319;SDS011;28914;48.722;9.332;2023-12-29T08:18:56;9.07;;;8.33;;
43319;SDS011;28914;48.722;9.332;2023-12-29T08:24:15;9.50;;;8.80;;
43319;SDS011;28914;48.722;9.332;2023-12-29T08:29:36;7.90;;;7.20;;
43319;SDS011;28914;48.722;9.332;2023-12-29T08:34:55;7.33;;;6.73;;
43319;SDS011;28914;48.722;9.332;2023-12-29T08:40:14;6.90;;;6.30;;
43319;SDS011;28914;48.722;9.332;2023-12-29T08:45:35;6.00;;;5.40;;
43319;SDS011;28914;48.722;9.332;2023-12-29T08:50:54;4.00;;;3.60;;
43319;SDS011;28914;48.722;9.332;2023-12-29T08:56:14;3.73;;;3.43;;
43319;SDS011;28914;48.722;9.332;2023-12-29T09:01:33;6.07;;;5.57;;
43319;SDS011;28914;48.722;9.332;2023-12-29T09:06:52;3.87;;;3.57;;
43319;SDS011;28914;48.722;9.332;2023-12-29T09:12:11;2.53;;;2.33;;
43319;SDS011;28914;48.722;9.332;2023-12-29T09:17:31;2.53;;;1.80;;
43319;SDS011;28914;48.722;9.332;2023-12-29T09:22:50;2.63;;;2.20;;
43319;SDS011;28914;48.722;9.332;2023-12-29T09:28:10;2.57;;;1.93;;
43319;SDS011;28914;48.722;9.332;2023-12-29T09:33:29;1.70;;;1.60;;
43319;SDS011;28914;48.722;9.332;2023-12-29T09:38:49;1.43;;;1.30;;
43319;SDS011;28914;48.722;9.332;2023-12-29T09:44:09;2.20;;;2.00;;
43319;SDS011;28914;48.722;9.332;2023-12-29T09:49:37;1.87;;;1.60;;
43319;SDS011;28914;48.722;9.332;2023-12-29T09:54:57;1.73;;;1.33;;
43319;SDS011;28914;48.722;9.332;2023-12-29T10:00:17;1.37;;;1.13;;
43319;SDS011;28914;48.722;9.332;2023-12-29T10:05:39;1.30;;;1.20;;
43319;SDS011;28914;48.722;9.332;2023-12-29T10:10:58;1.60;;;1.20;;
43319;SDS011;28914;48.722;9.332;2023-12-29T10:16:38;2.20;;;1.80;;
43319;SDS011;28914;48.722;9.332;2023-12-29T10:22:11;3.40;;;1.60;;
43319;SDS011;28914;48.722;9.332;2023-12-29T10:27:39;1.67;;;1.50;;
43319;SDS011;28914;48.722;9.332;2023-12-29T10:32:59;1.40;;;1.20;;
43319;SDS011;28914;48.722;9.332;2023-12-29T10:38:19;1.77;;;1.10;;
43319;SDS011;28914;48.722;9.332;2023-12-29T10:43:38;1.43;;;1.10;;
43319;SDS011;28914;48.722;9.332;2023-12-29T10:54:46;1.70;;;1.00;;
43319;SDS011;28914;48.722;9.332;2023-12-29T11:00:06;1.63;;;1.10;;
43319;SDS011;28914;48.722;9.332;2023-12-29T11:05:26;1.20;;;0.90;;
43319;SDS011;28914;48.722;9.332;2023-12-29T11:10:49;6.63;;;1.43;;
43319;SDS011;28914;48.722;9.332;2023-12-29T11:16:09;1.57;;;1.10;;
43319;SDS011;28914;48.722;9.332;2023-12-29T11:21:28;1.83;;;1.07;;
43319;SDS011;28914;48.722;9.332;2023-12-29T11:26:50;2.07;;;1.10;;
43319;SDS011;28914;48.722;9.332;2023-12-29T11:32:11;1.57;;;0.90;;
43319;SDS011;28914;48.722;9.332;2023-12-29T11:37:40;1.80;;;0.93;;
43319;SDS011;28914;48.722;9.332;2023-12-29T11:43:23;1.57;;;1.13;;
43319;SDS011;28914;48.722;9.332;2023-12-29T11:48:57;1.30;;;1.10;;
43319;SDS011;28914;48.722;9.332;2023-12-29T11:54:24;2.60;;;1.37;;
43319;SDS011;28914;48.722;9.332;2023-12-29T11:59:47;1.57;;;1.00;;
43319;SDS011;28914;48.722;9.332;2023-12-29T12:05:10;1.80;;;1.20;;
43319;SDS011;28914;48.722;9.332;2023-12-29T12:10:30;1.23;;;1.03;;
43319;SDS011;28914;48.722;9.332;2023-12-29T12:15:51;1.63;;;1.20;;
43319;SDS011;28914;48.722;9.332;2023-12-29T12:21:10;1.63;;;1.17;;
43319;SDS011;28914;48.722;9.332;2023-12-29T12:26:30;1.50;;;1.00;;
43319;SDS011;28914;48.722;9.332;2023-12-29T12:37:18;1.20;;;1.00;;
43319;SDS011;28914;48.722;9.332;2023-12-29T12:42:47;1.40;;;0.70;;
43319;SDS011;28914;48.722;9.332;2023-12-29T12:48:12;1.50;;;0.80;;
43319;SDS011;28914;48.722;9.332;2023-12-29T12:53:43;1.63;;;1.13;;
43319;SDS011;28914;48.722;9.332;2023-12-29T12:59:03;1.53;;;1.00;;
43319;SDS011;28914;48.722;9.332;2023-12-29T13:04:23;1.60;;;0.80;;
43319;SDS011;28914;48.722;9.332;2023-12-29T13:09:42;1.50;;;0.97;;
43319;SDS011;28914;48.722;9.332;2023-12-29T13:15:07;1.60;;;1.10;;
43319;SDS011;28914;48.722;9.332;2023-12-29T13:20:29;1.40;;;1.10;;
43319;SDS011;28914;48.722;9.332;2023-12-29T13:26:10;1.27;;;0.90;;
43319;SDS011;28914;48.722;9.332;2023-12-29T13:31:30;1.20;;;0.93;;
43319;SDS011;28914;48.722;9.332;2023-12-29T13:36:54;1.20;;;1.03;;
43319;SDS011;28914;48.722;9.332;2023-12-29T13:42:26;1.43;;;1.10;;
43319;SDS011;28914;48.722;9.332;2023-12-29T13:47:49;1.20;;;1.10;;
43319;SDS011;28914;48.722;9.332;2023-12-29T13:53:09;1.30;;;0.80;;
43319;SDS011;28914;48.722;9.332;2023-12-29T13:58:35;1.50;;;1.30;;
43319;SDS011;28914;48.722;9.332;2023-12-29T14:03:55;1.50;;;1.10;;
43319;SDS011;28914;48.722;9.332;2023-12-29T14:09:17;1.47;;;1.10;;
43319;SDS011;28914;48.722;9.332;2023-12-29T14:14:37;2.73;;;1.87;;
43319;SDS011;28914;48.722;9.332;2023-12-29T14:19:56;1.37;;;1.27;;
43319;SDS011;28914;48.722;9.332;2023-12-29T14:25:22;1.40;;;1.30;;
43319;SDS011;28914;48.722;9.332;2023-12-29T14:30:41;2.10;;;1.70;;
43319;SDS011;28914;48.722;9.332;2023-12-29T14:36:01;1.77;;;1.10;;
43319;SDS011;28914;48.722;9.332;2023-12-29T14:41:20;1.50;;;1.30;;
43319;SDS011;28914;48.722;9.332;2023-12-29T14:46:40;1.00;;;0.87;;
43319;SDS011;28914;48.722;9.332;2023-12-29T14:51:59;4.73;;;1.80;;
43319;SDS011;28914;48.722;9.332;2023-12-29T14:57:18;1.80;;;1.43;;
43319;SDS011;28914;48.722;9.332;2023-12-29T15:02:37;2.20;;;1.50;;
43319;SDS011;28914;48.722;9.332;2023-12-29T15:07:56;1.60;;;1.30;;
43319;SDS011;28914;48.722;9.332;2023-12-29T15:13:16;1.80;;;1.60;;
43319;SDS011;28914;48.722;9.332;2023-12-29T15:18:35;1.67;;;1.47;;
43319;SDS011;28914;48.722;9.332;2023-12-29T15:23:54;1.50;;;1.23;;
43319;SDS011;28914;48.722;9.332;2023-12-29T15:29:13;2.03;;;1.90;;
43319;SDS011;28914;48.722;9.332;2023-12-29T15:34:32;1.70;;;1.43;;
43319;SDS011;28914;48.722;9.332;2023-12-29T15:39:52;2.73;;;1.80;;
43319;SDS011;28914;48.722;9.332;2023-12-29T15:45:11;1.47;;;1.33;;
43319;SDS011;28914;48.722;9.332;2023-12-29T15:50:30;1.90;;;1.50;;
43319;SDS011;28914;48.722;9.332;2023-12-29T15:55:49;2.33;;;1.43;;
43319;SDS011;28914;48.722;9.332;2023-12-29T16:01:09;2.83;;;2.17;;
43319;SDS011;28914;48.722;9.332;2023-12-29T16:06:28;3.00;;;1.90;;
43319;SDS011;28914;48.722;9.332;2023-12-29T16:11:47;2.73;;;1.63;;
43319;SDS011;28914;48.722;9.332;2023-12-29T16:17:12;2.20;;;1.63;;
43319;SDS011;28914;48.722;9.332;2023-12-29T16:22:32;1.57;;;1.30;;
43319;SDS011;28914;48.722;9.332;2023-12-29T16:27:51;1.60;;;1.30;;
43319;SDS011;28914;48.722;9.332;2023-12-29T16:33:10;1.83;;;1.73;;
43319;SDS011;28914;48.722;9.332;2023-12-29T16:38:29;2.50;;;1.90;;
43319;SDS011;28914;48.722;9.332;2023-12-29T16:43:49;4.57;;;3.50;;
43319;SDS011;28914;48.722;9.332;2023-12-29T16:49:08;3.13;;;2.80;;
43319;SDS011;28914;48.722;9.332;2023-12-29T16:54:28;4.27;;;3.77;;
43319;SDS011;28914;48.722;9.332;2023-12-29T16:59:47;5.00;;;4.50;;
43319;SDS011;28914;48.722;9.332;2023-12-29T17:05:07;3.17;;;2.80;;
43319;SDS011;28914;48.722;9.332;2023-12-29T17:10:27;6.03;;;4.33;;
43319;SDS011;28914;48.722;9.332;2023-12-29T17:15:46;3.00;;;2.70;;
43319;SDS011;28914;48.722;9.332;2023-12-29T17:21:05;4.50;;;4.10;;
43319;SDS011;28914;48.722;9.332;2023-12-29T17:26:24;2.60;;;2.03;;
43319;SDS011;28914;48.722;9.332;2023-12-29T17:31:44;3.77;;;2.37;;
43319;SDS011;28914;48.722;9.332;2023-12-29T17:37:03;3.10;;;2.30;;
43319;SDS011;28914;48.722;9.332;2023-12-29T17:42:22;3.03;;;2.13;;
43319;SDS011;28914;48.722;9.332;2023-12-29T17:47:41;3.03;;;2.20;;
43319;SDS011;28914;48.722;9.332;2023-12-29T17:53:02;4.37;;;2.63;;
43319;SDS011;28914;48.722;9.332;2023-12-29T17:58:21;5.00;;;3.10;;
43319;SDS011;28914;48.722;9.332;2023-12-29T18:03:40;21.53;;;19.60;;
43319;SDS011;28914;48.722;9.332;2023-12-29T18:09:00;27.40;;;24.80;;
43319;SDS011;28914;48.722;9.332;2023-12-29T18:14:20;14.53;;;13.23;;
43319;SDS011;28914;48.722;9.332;2023-12-29T18:19:39;10.93;;;9.83;;
43319;SDS011;28914;48.722;9.332;2023-12-29T18:25:00;13.50;;;11.40;;
43319;SDS011;28914;48.722;9.332;2023-12-29T18:30:19;15.13;;;13.10;;
43319;SDS011;28914;48.722;9.332;2023-12-29T18:35:38;10.73;;;9.70;;
43319;SDS011;28914;48.722;9.332;2023-12-29T18:40:58;9.37;;;8.47;;
43319;SDS011;28914;48.722;9.332;2023-12-29T18:46:18;10.43;;;7.50;;
43319;SDS011;28914;48.722;9.332;2023-12-29T18:51:38;8.60;;;7.90;;
43319;SDS011;28914;48.722;9.332;2023-12-29T18:56:57;10.50;;;9.50;;
43319;SDS011;28914;48.722;9.332;2023-12-29T19:02:19;9.63;;;8.77;;
43319;SDS011;28914;48.722;9.332;2023-12-29T19:07:38;6.20;;;5.53;;
43319;SDS011;28914;48.722;9.332;2023-12-29T19:12:58;7.80;;;5.30;;
43319;SDS011;28914;48.722;9.332;2023-12-29T19:18:17;5.47;;;4.93;;
43319;SDS011;28914;48.722;9.332;2023-12-29T19:23:36;17.00;;;11.23;;
43319;SDS011;28914;48.722;9.332;2023-12-29T19:28:55;7.70;;;6.80;;
43319;SDS011;28914;48.722;9.332;2023-12-29T19:34:15;10.37;;;6.43;;
43319;SDS011;28914;48.722;9.332;2023-12-29T19:39:34;4.97;;;4.47;;
43319;SDS011;28914;48.722;9.332;2023-12-29T19:44:53;6.50;;;5.27;;
43319;SDS011;28914;48.722;9.332;2023-12-29T19:50:13;5.40;;;4.90;;
43319;SDS011;28914;48.722;9.332;2023-12-29T19:55:33;6.23;;;5.63;;
43319;SDS011;28914;48.722;9.332;2023-12-29T20:00:52;6.60;;;5.90;;
43319;SDS011;28914;48.722;9.332;2023-12-29T20:06:18;10.40;;;9.00;;
43319;SDS011;28914;48.722;9.332;2023-12-29T20:11:42;10.13;;;9.03;;
43319;SDS011;28914;48.722;9.332;2023-12-29T20:17:02;26.67;;;24.07;;
43319;SDS011;28914;48.722;9.332;2023-12-29T20:22:21;15.40;;;13.93;;
43319;SDS011;28914;48.722;9.332;2023-12-29T20:27:42;8.00;;;7.33;;
43319;SDS011;28914;48.722;9.332;2023-12-29T20:33:02;7.00;;;6.30;;
43319;SDS011;28914;48.722;9.332;2023-12-29T20:38:22;7.00;;;6.50;;
43319;SDS011;28914;48.722;9.332;2023-12-29T20:43:41;7.13;;;6.50;;
43319;SDS011;28914;48.722;9.332;2023-12-29T20:49:00;7.60;;;6.70;;
43319;SDS011;28914;48.722;9.332;2023-12-29T20:54:19;7.63;;;6.83;;
43319;SDS011;28914;48.722;9.332;2023-12-29T20:59:40;5.47;;;4.63;;
43319;SDS011;28914;48.722;9.332;2023-12-29T21:04:59;4.60;;;4.20;;
43319;SDS011;28914;48.722;9.332;2023-12-29T21:10:19;6.17;;;5.57;;
43319;SDS011;28914;48.722;9.332;2023-12-29T21:15:39;7.57;;;6.67;;
43319;SDS011;28914;48.722;9.332;2023-12-29T21:20:58;7.07;;;5.70;;
43319;SDS011;28914;48.722;9.332;2023-12-29T21:26:21;6.17;;;5.57;;
43319;SDS011;28914;48.722;9.332;2023-12-29T21:31:44;7.67;;;6.87;;
43319;SDS011;28914;48.722;9.332;2023-12-29T21:37:03;5.63;;;4.90;;
43319;SDS011;28914;48.722;9.332;2023-12-29T21:42:22;7.97;;;7.27;;
43319;SDS011;28914;48.722;9.332;2023-12-29T21:47:41;5.83;;;5.33;;
43319;SDS011;28914;48.722;9.332;2023-12-29T21:53:01;4.67;;;4.17;;
43319;SDS011;28914;48.722;9.332;2023-12-29T21:58:21;3.93;;;3.20;;
43319;SDS011;28914;48.722;9.332;2023-12-29T22:03:40;6.57;;;3.90;;
43319;SDS011;28914;48.722;9.332;2023-12-29T22:08:59;3.60;;;3.30;;
43319;SDS011;28914;48.722;9.332;2023-12-29T22:14:19;4.20;;;3.33;;
43319;SDS011;28914;48.722;9.332;2023-12-29T22:19:39;3.57;;;3.23;;
43319;SDS011;28914;48.722;9.332;2023-12-29T22:24:59;3.93;;;3.53;;
43319;SDS011;28914;48.722;9.332;2023-12-29T22:30:18;3.30;;;3.00;;
43319;SDS011;28914;48.722;9.332;2023-12-29T22:35:37;3.57;;;3.27;;
43319;SDS011;28914;48.722;9.332;2023-12-29T22:40:57;3.73;;;3.27;;
43319;SDS011;28914;48.722;9.332;2023-12-29T22:46:16;4.20;;;3.80;;
43319;SDS011;28914;48.722;9.332;2023-12-29T22:51:36;3.63;;;3.33;;
43319;SDS011;28914;48.722;9.332;2023-12-29T22:56:56;3.37;;;3.07;;
43319;SDS011;28914;48.722;9.332;2023-12-29T23:02:15;4.77;;;4.40;;
43319;SDS011;28914;48.722;9.332;2023-12-29T23:07:35;4.67;;;4.33;;
43319;SDS011;28914;48.722;9.332;2023-12-29T23:12:57;4.93;;;4.53;;
43319;SDS011;28914;48.722;9.332;2023-12-29T23:18:17;4.20;;;3.73;;
43319;SDS011;28914;48.722;9.332;2023-12-29T23:23:37;2.97;;;2.77;;
43319;SDS011;28914;48.722;9.332;2023-12-29T23:28:56;3.00;;;2.50;;
43319;SDS011;28914;48.722;9.332;2023-12-29T23:34:15;3.37;;;3.07;;
43319;SDS011;28914;48.722;9.332;2023-12-29T23:39:36;3.00;;;2.80;;
43319;SDS011;28914;48.722;9.332;2023-12-29T23:44:55;4.70;;;4.10;;
43319;SDS011;28914;48.722;9.332;2023-12-29T23:50:15;5.10;;;4.60;;
43319;SDS011;28914;48.722;9.332;2023-12-29T23:55:34;5.40;;;4.87;;
